sensor_id;sensor_type;location;lat;lon;timestamp;P1;durP1;ratioP1;P2;durP2;ratioP2
43861;SDS011;29510;52.140;5.034;2023-04-24T00:09:39;1.35;;;0.95;;
43861;SDS011;29510;52.140;5.034;2023-04-24T00:19:40;1.88;;;0.45;;
43861;SDS011;29510;52.140;5.034;2023-04-24T00:29:41;0.80;;;0.40;;
43861;SDS011;29510;52.140;5.034;2023-04-24T00:39:42;1.30;;;0.50;;
43861;SDS011;29510;52.140;5.034;2023-04-24T00:49:43;1.65;;;0.57;;
43861;SDS011;29510;52.140;5.034;2023-04-24T00:59:44;1.33;;;0.57;;
43861;SDS011;29510;52.140;5.034;2023-04-24T01:09:46;2.13;;;0.80;;
43861;SDS011;29510;52.140;5.034;2023-04-24T01:19:49;2.58;;;1.17;;
43861;SDS011;29510;52.140;5.034;2023-04-24T01:29:50;1.10;;;0.30;;
43861;SDS011;29510;52.140;5.034;2023-04-24T01:39:52;0.98;;;0.30;;
43861;SDS011;29510;52.140;5.034;2023-04-24T01:49:53;1.52;;;0.93;;
43861;SDS011;29510;52.140;5.034;2023-04-24T01:59:54;3.63;;;0.80;;
43861;SDS011;29510;52.140;5.034;2023-04-24T02:09:55;2.72;;;0.88;;
43861;SDS011;29510;52.140;5.034;2023-04-24T02:19:56;2.20;;;0.75;;
43861;SDS011;29510;52.140;5.034;2023-04-24T02:29:58;2.55;;;0.90;;
43861;SDS011;29510;52.140;5.034;2023-04-24T02:39:59;2.80;;;1.05;;
43861;SDS011;29510;52.140;5.034;2023-04-24T02:50:00;5.22;;;0.93;;
43861;SDS011;29510;52.140;5.034;2023-04-24T03:00:02;3.60;;;1.10;;
43861;SDS011;29510;52.140;5.034;2023-04-24T03:10:04;2.35;;;0.70;;
43861;SDS011;29510;52.140;5.034;2023-04-24T03:20:09;1.95;;;0.57;;
43861;SDS011;29510;52.140;5.034;2023-04-24T03:30:10;3.97;;;1.02;;
43861;SDS011;29510;52.140;5.034;2023-04-24T03:40:11;5.00;;;1.27;;
43861;SDS011;29510;52.140;5.034;2023-04-24T03:50:12;5.13;;;2.08;;
43861;SDS011;29510;52.140;5.034;2023-04-24T04:00:13;3.80;;;1.35;;
43861;SDS011;29510;52.140;5.034;2023-04-24T04:10:14;2.55;;;1.52;;
43861;SDS011;29510;52.140;5.034;2023-04-24T04:20:17;5.47;;;1.70;;
43861;SDS011;29510;52.140;5.034;2023-04-24T04:30:18;4.25;;;1.88;;
43861;SDS011;29510;52.140;5.034;2023-04-24T04:40:21;3.30;;;1.27;;
43861;SDS011;29510;52.140;5.034;2023-04-24T04:50:22;3.22;;;1.50;;
43861;SDS011;29510;52.140;5.034;2023-04-24T05:00:23;1.00;;;0.25;;
43861;SDS011;29510;52.140;5.034;2023-04-24T05:10:26;0.65;;;0.13;;
43861;SDS011;29510;52.140;5.034;2023-04-24T05:20:27;1.15;;;0.32;;
43861;SDS011;29510;52.140;5.034;2023-04-24T05:30:28;0.65;;;0.22;;
43861;SDS011;29510;52.140;5.034;2023-04-24T05:40:29;0.68;;;0.50;;
43861;SDS011;29510;52.140;5.034;2023-04-24T05:50:30;1.77;;;0.50;;
43861;SDS011;29510;52.140;5.034;2023-04-24T06:00:32;4.15;;;2.15;;
43861;SDS011;29510;52.140;5.034;2023-04-24T06:10:33;6.53;;;3.20;;
43861;SDS011;29510;52.140;5.034;2023-04-24T06:20:34;9.80;;;4.63;;
43861;SDS011;29510;52.140;5.034;2023-04-24T06:30:35;9.27;;;5.38;;
43861;SDS011;29510;52.140;5.034;2023-04-24T06:40:36;17.75;;;5.38;;
43861;SDS011;29510;52.140;5.034;2023-04-24T06:50:38;9.02;;;4.00;;
43861;SDS011;29510;52.140;5.034;2023-04-24T07:00:39;15.82;;;4.63;;
43861;SDS011;29510;52.140;5.034;2023-04-24T07:10:40;11.02;;;3.42;;
43861;SDS011;29510;52.140;5.034;2023-04-24T07:20:41;6.07;;;3.00;;
43861;SDS011;29510;52.140;5.034;2023-04-24T07:30:42;13.35;;;3.45;;
43861;SDS011;29510;52.140;5.034;2023-04-24T07:40:43;8.70;;;2.75;;
43861;SDS011;29510;52.140;5.034;2023-04-24T07:50:44;10.90;;;3.13;;
43861;SDS011;29510;52.140;5.034;2023-04-24T08:00:45;6.32;;;1.85;;
43861;SDS011;29510;52.140;5.034;2023-04-24T08:10:46;7.13;;;1.52;;
43861;SDS011;29510;52.140;5.034;2023-04-24T08:20:47;4.28;;;1.00;;
43861;SDS011;29510;52.140;5.034;2023-04-24T08:30:49;8.88;;;1.70;;
43861;SDS011;29510;52.140;5.034;2023-04-24T08:40:54;3.28;;;1.08;;
43861;SDS011;29510;52.140;5.034;2023-04-24T08:50:58;2.35;;;0.90;;
43861;SDS011;29510;52.140;5.034;2023-04-24T09:01:00;2.55;;;0.82;;
43861;SDS011;29510;52.140;5.034;2023-04-24T09:11:01;4.88;;;0.90;;
43861;SDS011;29510;52.140;5.034;2023-04-24T09:21:06;6.45;;;1.83;;
43861;SDS011;29510;52.140;5.034;2023-04-24T09:31:13;8.13;;;0.80;;
43861;SDS011;29510;52.140;5.034;2023-04-24T09:41:18;2.28;;;0.68;;
43861;SDS011;29510;52.140;5.034;2023-04-24T09:51:20;2.65;;;0.70;;
43861;SDS011;29510;52.140;5.034;2023-04-24T10:01:35;1.50;;;0.70;;
43861;SDS011;29510;52.140;5.034;2023-04-24T10:11:40;2.60;;;0.70;;
43861;SDS011;29510;52.140;5.034;2023-04-24T10:21:43;0.95;;;0.13;;
43861;SDS011;29510;52.140;5.034;2023-04-24T10:31:48;1.35;;;1.02;;
43861;SDS011;29510;52.140;5.034;2023-04-24T10:41:49;3.58;;;0.52;;
43861;SDS011;29510;52.140;5.034;2023-04-24T10:51:51;1.85;;;0.40;;
43861;SDS011;29510;52.140;5.034;2023-04-24T11:01:54;2.90;;;0.80;;
43861;SDS011;29510;52.140;5.034;2023-04-24T11:22:16;0.30;;;0.05;;
43861;SDS011;29510;52.140;5.034;2023-04-24T11:32:22;0.75;;;0.17;;
43861;SDS011;29510;52.140;5.034;2023-04-24T11:42:24;0.32;;;0.17;;
43861;SDS011;29510;52.140;5.034;2023-04-24T11:52:29;3.53;;;0.98;;
43861;SDS011;29510;52.140;5.034;2023-04-24T12:02:31;2.55;;;0.85;;
43861;SDS011;29510;52.140;5.034;2023-04-24T12:12:32;2.10;;;0.63;;
43861;SDS011;29510;52.140;5.034;2023-04-24T12:22:46;1.67;;;0.47;;
43861;SDS011;29510;52.140;5.034;2023-04-24T12:32:48;2.30;;;0.70;;
43861;SDS011;29510;52.140;5.034;2023-04-24T12:42:51;4.72;;;0.70;;
43861;SDS011;29510;52.140;5.034;2023-04-24T12:52:52;6.30;;;1.35;;
43861;SDS011;29510;52.140;5.034;2023-04-24T13:02:53;8.77;;;1.65;;
43861;SDS011;29510;52.140;5.034;2023-04-24T13:12:54;4.53;;;1.38;;
43861;SDS011;29510;52.140;5.034;2023-04-24T13:22:55;6.40;;;2.10;;
43861;SDS011;29510;52.140;5.034;2023-04-24T13:32:56;5.80;;;1.25;;
43861;SDS011;29510;52.140;5.034;2023-04-24T13:42:57;3.13;;;1.05;;
43861;SDS011;29510;52.140;5.034;2023-04-24T13:52:59;5.13;;;1.00;;
43861;SDS011;29510;52.140;5.034;2023-04-24T14:03:01;10.30;;;1.77;;
43861;SDS011;29510;52.140;5.034;2023-04-24T14:13:02;3.00;;;1.00;;
43861;SDS011;29510;52.140;5.034;2023-04-24T14:23:03;4.07;;;1.73;;
43861;SDS011;29510;52.140;5.034;2023-04-24T14:33:05;10.07;;;2.33;;
43861;SDS011;29510;52.140;5.034;2023-04-24T14:43:06;5.00;;;1.70;;
43861;SDS011;29510;52.140;5.034;2023-04-24T14:53:07;5.78;;;1.50;;
43861;SDS011;29510;52.140;5.034;2023-04-24T15:03:08;2.85;;;0.93;;
43861;SDS011;29510;52.140;5.034;2023-04-24T15:13:15;3.20;;;1.00;;
43861;SDS011;29510;52.140;5.034;2023-04-24T15:23:16;5.10;;;1.80;;
43861;SDS011;29510;52.140;5.034;2023-04-24T15:33:17;3.65;;;1.83;;
43861;SDS011;29510;52.140;5.034;2023-04-24T15:43:18;3.40;;;1.60;;
43861;SDS011;29510;52.140;5.034;2023-04-24T15:53:19;5.65;;;2.13;;
43861;SDS011;29510;52.140;5.034;2023-04-24T16:03:23;7.22;;;1.42;;
43861;SDS011;29510;52.140;5.034;2023-04-24T16:13:25;3.20;;;1.30;;
43861;SDS011;29510;52.140;5.034;2023-04-24T16:23:26;5.70;;;1.98;;
43861;SDS011;29510;52.140;5.034;2023-04-24T16:33:27;7.30;;;1.70;;
43861;SDS011;29510;52.140;5.034;2023-04-24T16:43:28;14.15;;;2.60;;
43861;SDS011;29510;52.140;5.034;2023-04-24T16:53:30;12.32;;;1.63;;
43861;SDS011;29510;52.140;5.034;2023-04-24T17:03:31;4.10;;;1.23;;
43861;SDS011;29510;52.140;5.034;2023-04-24T17:13:32;5.95;;;1.38;;
43861;SDS011;29510;52.140;5.034;2023-04-24T17:23:33;3.17;;;1.20;;
43861;SDS011;29510;52.140;5.034;2023-04-24T17:33:34;5.90;;;2.33;;
43861;SDS011;29510;52.140;5.034;2023-04-24T17:43:35;6.93;;;1.55;;
43861;SDS011;29510;52.140;5.034;2023-04-24T17:53:36;10.38;;;2.55;;
43861;SDS011;29510;52.140;5.034;2023-04-24T18:03:38;6.63;;;1.63;;
43861;SDS011;29510;52.140;5.034;2023-04-24T18:13:39;7.32;;;2.40;;
43861;SDS011;29510;52.140;5.034;2023-04-24T18:23:42;7.20;;;1.23;;
43861;SDS011;29510;52.140;5.034;2023-04-24T18:33:43;5.63;;;1.88;;
43861;SDS011;29510;52.140;5.034;2023-04-24T18:43:44;2.00;;;0.77;;
43861;SDS011;29510;52.140;5.034;2023-04-24T18:53:47;2.03;;;1.02;;
43861;SDS011;29510;52.140;5.034;2023-04-24T19:03:48;0.95;;;0.30;;
43861;SDS011;29510;52.140;5.034;2023-04-24T19:13:49;1.70;;;0.57;;
43861;SDS011;29510;52.140;5.034;2023-04-24T19:23:50;2.75;;;1.40;;
43861;SDS011;29510;52.140;5.034;2023-04-24T19:33:52;0.90;;;0.40;;
43861;SDS011;29510;52.140;5.034;2023-04-24T19:43:53;1.23;;;0.47;;
43861;SDS011;29510;52.140;5.034;2023-04-24T19:53:54;2.55;;;0.82;;
43861;SDS011;29510;52.140;5.034;2023-04-24T20:03:55;1.67;;;0.43;;
43861;SDS011;29510;52.140;5.034;2023-04-24T20:13:56;7.30;;;2.15;;
43861;SDS011;29510;52.140;5.034;2023-04-24T20:23:57;3.22;;;0.60;;
43861;SDS011;29510;52.140;5.034;2023-04-24T20:33:58;4.40;;;0.70;;
43861;SDS011;29510;52.140;5.034;2023-04-24T20:43:59;1.88;;;0.45;;
43861;SDS011;29510;52.140;5.034;2023-04-24T20:54:01;7.85;;;0.93;;
43861;SDS011;29510;52.140;5.034;2023-04-24T21:04:03;2.28;;;0.80;;
43861;SDS011;29510;52.140;5.034;2023-04-24T21:14:04;1.48;;;0.57;;
43861;SDS011;29510;52.140;5.034;2023-04-24T21:24:05;3.75;;;0.95;;
43861;SDS011;29510;52.140;5.034;2023-04-24T21:34:06;1.40;;;0.57;;
43861;SDS011;29510;52.140;5.034;2023-04-24T21:44:07;8.93;;;1.25;;
43861;SDS011;29510;52.140;5.034;2023-04-24T21:54:09;2.72;;;0.75;;
43861;SDS011;29510;52.140;5.034;2023-04-24T22:04:10;5.95;;;0.90;;
43861;SDS011;29510;52.140;5.034;2023-04-24T22:14:11;2.13;;;1.00;;
43861;SDS011;29510;52.140;5.034;2023-04-24T22:24:13;2.15;;;0.70;;
43861;SDS011;29510;52.140;5.034;2023-04-24T22:34:14;4.50;;;1.15;;
43861;SDS011;29510;52.140;5.034;2023-04-24T22:44:16;3.67;;;1.05;;
43861;SDS011;29510;52.140;5.034;2023-04-24T22:54:18;3.25;;;1.33;;
43861;SDS011;29510;52.140;5.034;2023-04-24T23:04:19;3.95;;;1.67;;
43861;SDS011;29510;52.140;5.034;2023-04-24T23:14:21;4.90;;;1.70;;
43861;SDS011;29510;52.140;5.034;2023-04-24T23:24:24;2.50;;;0.93;;
43861;SDS011;29510;52.140;5.034;2023-04-24T23:34:26;5.20;;;1.83;;
43861;SDS011;29510;52.140;5.034;2023-04-24T23:44:28;3.28;;;0.95;;
43861;SDS011;29510;52.140;5.034;2023-04-24T23:54:29;6.85;;;1.92;;
